• Join FlightAware (Why Join?)
  • Login
  • US Flag 
05:50AM EDT


 

Airport Tracker/Info


-or-


 

Live Flight TrackerFlight Track Log ✈ BJS542 ✈ 11-08-2013 ✈ KJAC - KTEB

Flight Track Log - Related Links

Times and Time Zones

All times are in EDT time to prevent confusion due to time zone crossing. See the BJS542 flight status page for this flight to view local times or setup timezone preferences in your user account.

Time Position Orientation Groundspeed Altitude Reporting Facility
EDT Latitude Longitude Course Direction KTS MPH feet Rate Location/Type
04:01PM 43.5839 -110.7489 77° East 152 175 7,200  Level Salt Lake Center
04:02PM 43.5306 -110.7856 206° Southwest 214 246 9,500 2,580 Climbing Salt Lake Center
04:03PM 43.4583 -110.8317 205° Southwest 271 312 12,600 2,280 Climbing Salt Lake Center
04:04PM 43.3828 -110.7428 139° Southeast 352 405 14,300 2,520 Climbing Salt Lake Center
04:05PM 43.4346 -109.8094 77° East  Level FlightAware Approximate
04:05PM 43.3992 -110.6072 81° East 369 425 17,900  Level Salt Lake Center
04:06PM 43.4641 -109.6335 77° East  Level FlightAware Approximate
04:07PM 43.4934 -109.4575 77° East  Level FlightAware Approximate
04:07PM 43.4244 -110.4586 77° East 365 420 21,600  Level Salt Lake Center
04:08PM 43.4458 -110.3250 78° East 371 427 24,400 2,940 Climbing Salt Lake Center
04:09PM 43.4719 -110.1647 77° East 382 440 27,700 2,700 Climbing Salt Lake Center
04:10PM 43.5119 -110.0383 66° East 388 447 30,000 2,220 Climbing Salt Lake Center
04:11PM 43.5733 -109.8850 61° Northeast 404 465 32,400 2,100 Climbing Salt Lake Center
04:12PM 43.6342 -109.7575 57° Northeast 412 474 34,400 1,980 Climbing Salt Lake Center
04:13PM 43.7067 -109.6081 56° Northeast 419 482 36,500 1,740 Climbing Salt Lake Center
04:14PM 43.7711 -109.4792 55° Northeast 423 487 38,000 1,440 Climbing Salt Lake Center
04:15PM 43.8308 -109.3108 64° Northeast 439 505 39,500 1,320 Climbing Salt Lake Center
04:16PM 43.8608 -109.1553 75° East 438 504 40,800 1,200 Climbing Salt Lake Center
04:17PM 43.8961 -108.9758 75° East 436 502 42,100 960 Climbing Salt Lake Center
04:18PM 43.9261 -108.8222 75° East 433 498 42,900 660 Climbing Salt Lake Center
04:19PM 43.9600 -108.6431 75° East 432 497 43,500 540 Climbing Salt Lake Center
04:20PM 43.9900 -108.4861 75° East 437 503 44,100 660 Climbing Salt Lake Center
04:21PM 44.0217 -108.3236 75° East 436 502 44,900 420 Climbing Salt Lake Center
04:22PM 44.0558 -108.1411 75° East 438 504 45,000  Climbing Salt Lake Center
04:23PM 44.0847 -107.9819 76° East 443 510 45,000  Level Salt Lake Center
04:24PM 44.1197 -107.7903 76° East 454 522 45,000  Level Salt Lake Center
04:25PM 44.1503 -107.6214 76° East 465 535 45,000  Level Salt Lake Center
04:26PM 44.1869 -107.4222 76° East 474 545 45,000  Level Salt Lake Center
04:27PM 44.2169 -107.2531 76° East 473 544 45,000  Level Salt Lake Center
04:28PM 44.2506 -107.0650 76° East 474 545 45,000  Level Salt Lake Center
04:29PM 44.2800 -106.8939 76° East 475 547 45,000  Level Salt Lake Center
04:30PM 44.3169 -106.6922 76° East 478 550 45,000  Level Salt Lake Center
04:31PM 44.3464 -106.5211 76° East 477 549 45,000  Level Salt Lake Center
04:32PM 44.3786 -106.3239 77° East 472 543 45,000  Level Salt Lake Center
04:33PM 44.4078 -106.1500 77° East 476 548 45,000  Level Salt Lake Center
04:34PM 44.4406 -105.9489 77° East 476 548 45,000  Level Salt Lake Center
04:35PM 44.4689 -105.7758 77° East 475 547 45,000  Level Salt Lake Center
04:37PM 44.5022 -105.5731 77° East 478 550 45,000  Level Salt Lake Center
04:38PM 44.5303 -105.3992 77° East 479 551 45,000  Level Salt Lake Center
04:39PM 44.5575 -105.2258 78° East 477 549 45,000  Level Salt Lake Center
04:40PM 44.5892 -105.0219 78° East 478 550 45,000  Level Salt Lake Center
04:41PM 44.6167 -104.8469 77° East 479 551 45,000  Level Salt Lake Center
04:42PM 44.6478 -104.6419 78° East 480 552 45,000  Level Salt Lake Center
04:43PM 44.6739 -104.4653 78° East 481 554 45,000  Level Salt Lake Center
04:44PM 44.7042 -104.2553 78° East 486 559 45,000  Level Salt Lake Center
04:45PM 44.7314 -104.0781 78° East 486 559 45,000  Level Salt Lake Center
04:46PM 44.7600 -103.8694 79° East 486 559 45,000  Level Salt Lake Center
04:47PM 44.7853 -103.6914 79° East 485 558 45,000  Level Salt Lake Center
04:48PM 44.8156 -103.4933 78° East 488 562 45,000  Level Minneapolis Center
04:49PM 44.8422 -103.3061 79° East 488 562 45,000  Level Minneapolis Center
04:50PM 44.8681 -103.1161 79° East 491 565 45,000  Level Minneapolis Center
04:51PM 44.8947 -102.9244 79° East 497 572 45,000  Level Minneapolis Center
04:52PM 44.9203 -102.7306 79° East 501 577 45,000  Level Minneapolis Center
04:53PM 44.9522 -102.4983 79° East 502 578 45,000  Level Minneapolis Center
04:54PM 44.9772 -102.3058 80° East 501 577 45,000  Level Minneapolis Center
04:55PM 45.0011 -102.1119 80° East 500 575 45,000  Level Minneapolis Center
04:56PM 45.0256 -101.9203 80° East 498 573 45,000  Level Minneapolis Center
04:57PM 45.0508 -101.7269 79° East 499 574 45,000  Level Minneapolis Center
04:58PM 45.0728 -101.5356 81° East 496 571 45,000  Level Minneapolis Center
04:59PM 45.1008 -101.3042 80° East 496 571 45,000  Level Minneapolis Center
05:00PM 45.1244 -101.1092 80° East 499 574 45,000  Level Minneapolis Center
05:01PM 45.1506 -100.9153 79° East 501 577 45,000  Level Minneapolis Center
05:02PM 45.1731 -100.7200 81° East 501 577 45,000  Level Minneapolis Center
05:04PM 45.1992 -100.4858 81° East 500 575 45,000  Level Minneapolis Center
05:05PM 45.2211 -100.2900 81° East 500 575 45,000  Level Minneapolis Center
05:06PM 45.2447 -100.0944 80° East 497 572 45,000  Level Minneapolis Center
05:07PM 45.2667 -99.8922 81° East 504 580 45,000  Level Minneapolis Center
05:08PM 45.2867 -99.6933 82° East 504 580 45,000  Level Minneapolis Center
05:09PM 45.3069 -99.4989 81° East 499 574 45,000  Level Minneapolis Center
05:10PM 45.3272 -99.3017 82° East 500 575 45,000  Level Minneapolis Center
05:11PM 45.3472 -99.1064 82° East 500 575 45,000  Level Minneapolis Center
05:12PM 45.3694 -98.8711 82° East 501 577 45,000  Level Minneapolis Center
05:13PM 45.3894 -98.6756 82° East 500 575 45,000  Level Minneapolis Center
05:14PM 45.4078 -98.4792 82° East 500 575 45,000  Level Minneapolis Center
05:15PM 45.4172 -98.2831 86° East 499 574 45,000  Level Minneapolis Center
05:16PM 45.4083 -98.0839 94° East 502 578 45,000  Level Minneapolis Center
05:17PM 45.4008 -97.8644 93° East 505 581 45,000  Level Minneapolis Center
05:18PM 45.3928 -97.6656 93° East 505 581 45,000  Level Minneapolis Center
05:19PM 45.3850 -97.4672 93° East 504 580 45,000  Level Minneapolis Center
05:20PM 45.3767 -97.2703 93° East 501 577 45,000  Level Minneapolis Center
05:21PM 45.3678 -97.0711 94° East 504 580 45,000  Level Minneapolis Center
05:22PM 45.3572 -96.8350 94° East 500 575 45,000  Level Minneapolis Center
05:23PM 45.3494 -96.6761 94° East 503 579 45,000  Level Minneapolis Center
05:24PM 45.3383 -96.4397 94° East 500 575 45,000  Level Minneapolis Center
05:25PM 45.3278 -96.2408 94° East 502 578 45,000  Level Minneapolis Center
05:26PM 45.3183 -96.0425 94° East 503 579 45,000  Level Minneapolis Center
05:27PM 45.3094 -95.8839 95° East 504 580 45,000  Level Minneapolis Center
05:28PM 45.2953 -95.6064 94° East 503 579 45,000  Level Minneapolis Center
05:29PM 45.2833 -95.4064 95° East 506 582 45,000  Level Minneapolis Center
05:30PM 45.2722 -95.2072 94° East 506 582 45,000  Level Minneapolis Center
05:31PM 45.2589 -95.0069 95° East 509 586 45,000  Level Minneapolis Center
05:32PM 45.2472 -94.8078 95° East 508 585 45,000  Level Minneapolis Center
05:34PM 45.2322 -94.5831 95° East 510 587 45,000  Level Minneapolis Center
05:35PM 45.2192 -94.3822 95° East 512 589 45,000  Level Minneapolis Center
05:36PM 45.2058 -94.1819 95° East 511 588 45,000  Level Minneapolis Center
05:37PM 45.1914 -93.9811 96° East 512 589 45,000  Level Minneapolis Center
05:38PM 45.1772 -93.7806 96° East 511 588 45,000  Level Minneapolis Center
05:39PM 45.1628 -93.5786 96° East 513 590 45,000  Level Minneapolis Center
05:40PM 45.1425 -93.3347 97° East 516 594 45,000  Level Minneapolis Center
05:41PM 45.1253 -93.1317 97° East 515 593 45,000  Level Minneapolis Center
05:42PM 45.1069 -92.9292 97° East 515 593 45,000  Level Minneapolis Center
05:43PM 45.0892 -92.7258 97° East 517 595 45,000  Level Minneapolis Center
05:44PM 45.0714 -92.5264 97° East 514 592 45,000  Level Minneapolis Center
05:45PM 45.0486 -92.2886 98° East 510 587 45,000  Level Minneapolis Center
05:46PM 45.0272 -92.0894 99° East 511 588 45,000  Level Minneapolis Center
05:47PM 45.0008 -91.8514 99° East 511 588 45,000  Level Minneapolis Center
05:48PM 44.9789 -91.6525 99° East 511 588 45,000  Level Minneapolis Center
05:49PM 44.9581 -91.4544 98° East 512 589 45,000  Level Minneapolis Center
05:50PM 44.9347 -91.2547 99° East 514 592 45,000  Level Minneapolis Center
05:51PM 44.9136 -91.0564 98° East 513 590 45,000  Level Minneapolis Center
05:52PM 44.8881 -90.8231 99° East 513 590 45,000  Level Minneapolis Center
05:53PM 44.8658 -90.6261 99° East 512 589 45,000  Level Minneapolis Center
05:54PM 44.8422 -90.4272 99° East 515 593 45,000  Level Minneapolis Center
05:55PM 44.8214 -90.2361 99° East 516 594 45,000  Level Minneapolis Center
05:56PM 44.7922 -90.0036 100° East 517 595 45,000  Level Minneapolis Center
05:58PM 44.7669 -89.8053 100° East 515 593 45,000  Level Minneapolis Center
05:59PM 44.7425 -89.6078 100° East 512 589 45,000  Level Minneapolis Center
06:00PM 44.7172 -89.4103 100° East 512 589 45,000  Level Minneapolis Center
06:01PM 44.6922 -89.2136 100° East 512 589 45,000  Level Minneapolis Center
06:02PM 44.6619 -88.9847 100° East 511 588 45,000  Level Minneapolis Center
06:03PM 44.6356 -88.7858 100° East 514 592 45,000  Level Minneapolis Center
06:04PM 44.6100 -88.5911 100° East 510 587 45,000  Level Minneapolis Center
06:05PM 44.5836 -88.3978 101° East 506 582 45,000  Level Minneapolis Center
06:06PM 44.5564 -88.2019 101° East 508 585 45,000  Level Minneapolis Center
06:07PM 44.5167 -88.0119 106° East 507 583 45,000  Level Minneapolis Center
06:08PM 44.4697 -87.7911 107° East 509 586 45,000  Level Minneapolis Center
06:09PM 44.4286 -87.6011 107° East 509 586 45,000  Level Minneapolis Center
06:10PM 44.3811 -87.3792 107° East 510 587 45,000  Level Minneapolis Center
06:11PM 44.3361 -87.1772 107° East 508 585 45,000  Level Minneapolis Center
06:12PM 44.2950 -86.9914 107° East 506 582 45,000  Level Minneapolis Center
06:13PM 44.2553 -86.8064 107° East 503 579 45,000  Level Minneapolis Center
06:14PM 44.2147 -86.6242 107° East 498 573 45,000  Level Minneapolis Center
06:15PM 44.1650 -86.4053 108° East 498 573 45,000  Level Minneapolis Center
06:16PM 44.1233 -86.2228 108° East 498 573 45,000  Level Minneapolis Center
06:17PM 44.0822 -86.0386 107° East 499 574 45,000  Level Minneapolis Center
06:18PM 44.0397 -85.8547 108° East 499 574 45,000  Level Minneapolis Center
06:19PM 43.9961 -85.6692 108° East 502 578 45,000  Level Minneapolis Center
06:20PM 43.9533 -85.4856 108° East 501 577 45,000  Level Minneapolis Center
06:22PM 43.9094 -85.3011 108° East 502 578 45,000  Level Minneapolis Center
06:23PM 43.8567 -85.0794 108° East 504 580 45,000  Level Minneapolis Center
06:24PM 43.8119 -84.8958 109° East 504 580 45,000  Level Minneapolis Center
06:25PM 43.7678 -84.7108 108° East 505 581 45,000  Level Minneapolis Center
06:26PM 43.7233 -84.5264 108° East 505 581 45,000  Level Minneapolis Center
06:27PM 43.6772 -84.3422 109° East 507 583 45,000  Level Minneapolis Center
06:28PM 43.6314 -84.1578 109° East 508 585 45,000  Level Minneapolis Center
06:29PM 43.5747 -83.9336 109° East 513 590 45,000  Level Minneapolis Center
06:30PM 43.5283 -83.7481 109° East 514 592 45,000  Level Minneapolis Center
06:31PM 43.4806 -83.5622 109° East 515 593 45,000  Level Minneapolis Center
06:32PM 43.4331 -83.3739 109° East 519 597 45,000  Level Minneapolis Center
06:33PM 43.3792 -83.1881 112° Southeast 513 590 45,000  Level Cleveland Center
06:34PM 43.3000 -82.9500 114° Southeast 520 598 45,000  Level Toronto Center
06:35PM 43.2806 -82.8133 101° East 519 597 45,000  Level Cleveland Center
06:36PM 43.2425 -82.6236 105° East 519 597 45,000  Level Cleveland Center
06:37PM 43.2167 -82.4264 100° East 519 597 45,000  Level Cleveland Center
06:38PM 43.1903 -82.2261 100° East 525 604 45,000  Level Cleveland Center
06:39PM 43.1333 -81.9667 107° East 530 610 45,000  Level Toronto Center
06:40PM 43.1167 -81.7833 97° East 530 610 45,000  Level Toronto Center
06:41PM 43.1000 -81.5667 96° East 530 610 45,000  Level Toronto Center
06:42PM 43.0667 -81.3667 103° East 530 610 45,000  Level Toronto Center
06:43PM 43.0167 -81.1667 109° East 530 610 45,000  Level Toronto Center
06:44PM 42.9667 -81.0000 112° Southeast 520 598 45,000  Level Toronto Center
06:45PM 42.9000 -80.8333 119° Southeast 520 598 45,000  Level Toronto Center
06:46PM 42.8333 -80.6500 116° Southeast 520 598 45,000  Level Toronto Center
06:47PM 42.7667 -80.5000 121° Southeast 520 598 45,000  Level Toronto Center
06:48PM 42.7000 -80.3167 116° Southeast 510 587 45,000  Level Toronto Center
06:49PM 42.6167 -80.1500 124° Southeast 520 598 45,000  Level Toronto Center
06:50PM 42.5500 -79.9667 116° Southeast 520 598 45,000  Level Toronto Center
06:51PM 42.4833 -79.8167 121° Southeast 520 598 45,000  Level Toronto Center
06:52PM 42.4000 -79.6333 122° Southeast 510 587 45,000  Level Toronto Center
06:53PM 42.3333 -79.4833 121° Southeast 510 587 45,000  Level Toronto Center
06:54PM 42.2833 -79.3000 110° East 520 598 45,000  Level Toronto Center
06:55PM 42.2500 -79.1167 104° East 520 598 45,000  Level Toronto Center
06:56PM 42.2000 -78.9167 109° East 520 598 45,000  Level Toronto Center
06:57PM 42.1500 -78.7333 110° East 520 598 45,000 -120 Level Toronto Center
06:58PM 42.1000 -78.5833 114° Southeast 520 598 44,800 -660 Descending Toronto Center
06:59PM 42.0333 -78.3833 114° Southeast 520 598 43,700 -1,080 Descending Toronto Center
07:00PM 41.9833 -78.2000 110° East 520 598 42,700 -1,020 Descending Toronto Center
07:01PM 41.9333 -78.0167 110° East 520 598 41,700 -1,080 Descending Toronto Center
07:02PM 41.9308 -77.9611 93° East 515 593 41,100 -1,380 Descending New York Center
07:03PM 41.8814 -77.7772 110° East 515 593 39,600 -1,560 Descending New York Center
07:04PM 41.8294 -77.5964 111° Southeast 515 593 38,100 -1,560 Descending New York Center
07:05PM 41.7775 -77.4103 110° East 521 600 36,600 -1,500 Descending New York Center
07:06PM 41.7247 -77.2328 112° Southeast 521 600 35,100 -1,500 Descending New York Center
07:07PM 41.6739 -77.0528 111° Southeast 521 600 33,600 -1,500 Descending New York Center
07:08PM 41.6211 -76.8675 111° Southeast 521 600 32,100 -1,620 Descending New York Center
07:09PM 41.5642 -76.6736 111° Southeast 526 605 30,400 -1,620 Descending New York Center
07:10PM 41.5106 -76.4917 111° Southeast 516 594 28,900 -1,560 Descending New York Center
07:11PM 41.4628 -76.3131 110° East 516 594 27,400 -2,040 Descending New York Center
07:12PM 41.4086 -76.1372 112° Southeast 516 594 24,900 -2,280 Descending New York Center
07:13PM 41.3686 -76.0067 112° Southeast 502 578 22,900 -2,220 Descending New York Center
07:14PM 41.3172 -75.8453 113° Southeast 460 529 20,500 -2,400 Descending New York Center
07:15PM 41.2736 -75.6903 110° East 445 512 18,200 -1,620 Descending New York Center
07:16PM 41.2256 -75.5433 113° Southeast 409 471 17,400 -1,380 Descending New York Center
07:17PM 41.1847 -75.4219 114° Southeast 373 429 15,500 -2,220 Descending New York Center
07:18PM 41.1492 -75.3175 114° Southeast 352 405 13,000 -2,400 Descending New York Center
07:19PM 41.1117 -75.2047 114° Southeast 345 397 10,800 -2,400 Descending New York Center
07:20PM 41.0703 -75.0864 115° Southeast 333 383 8,300 -2,100 Descending New York Center
07:21PM 41.0469 -74.9806 106° East 312 359 6,600 -1,200 Descending New York Center
07:22PM 41.0425 -74.8675 93° East 300 345 5,900 -900 Descending New York Center
07:23PM 41.0419 -74.7656 90° East 300 345 4,900 -1,080 Descending New York Center
07:24PM 41.0414 -74.6556 90° East 295 339 3,800 -1,080 Descending New York Center
07:24PM 41.0333 -74.5833 98° East 279 321 3,200 -540 Descending New York TRACON
07:25PM 41.0333 -74.4833 90° East 283 326 3,000 -120 Descending New York TRACON
07:26PM 41.0333 -74.3833 90° East 282 325 3,000  Level New York TRACON
07:27PM 41.0333 -74.2833 90° East 276 318 3,000 -300 Level New York TRACON
07:28PM 41.0333 -74.1833 90° East 280 322 2,400 -540 Descending New York TRACON
07:29PM 41.0333 -74.0833 90° East 268 308 2,000 -240 Descending New York TRACON
07:30PM 40.9667 -74.0500 159° South 242 278 2,000 -360 Level New York TRACON
07:31PM 40.9167 -74.0500 180° South 190 219 1,300 -780 Descending New York TRACON
07:32PM 40.8833 -74.0500 180° South 132 152 500 -840 Descending New York TRACON